Home > Products > Valid Products > TAF

000
FTUS42 KRAH 310532
TAFRDU
TAF
KRDU 310532Z 3106/0106 04004KT P6SM SKC
     FM311800 04004KT P6SM SCT050 BKN200=



000
FTUS42 KRAH 310532
TAFRWI
TAF
KRWI 310532Z 3106/0106 02004KT P6SM SKC
      TEMPO 3107/3111 00000KT 3SM BR
     FM312100 02005KT P6SM FEW050 BKN200=



000
FTUS42 KRAH 310532
TAFINT
TAF
KINT 310532Z 3106/0106 04005KT P6SM FEW060
     FM311800 VRB04KT P6SM BKN045 BKN150
     FM010300 05004KT 3SM -RA BKN015 OVC030=



000
FTUS42 KRAH 310532
TAFFAY
TAF
KFAY 310532Z 3106/0106 03005KT P6SM SKC
     FM312100 VRB03KT P6SM FEW050 BKN200=



000
FTUS42 KRAH 310532
TAFGSO
TAF
KGSO 310532Z 3106/0106 04005KT P6SM FEW060
     FM311800 VRB04KT P6SM BKN045 BKN150
     FM010300 05004KT 3SM -RA BKN015 OVC030=



000
FTUS42 KRAH 310145 AAA
TAFGSO
TAF AMD
KGSO 310145Z 3102/3124 05004KT P6SM SKC
     FM311200 VRB04KT P6SM BKN045 BKN200=



000
FTUS42 KRAH 310145 AAA
TAFGSO
TAF AMD
KGSO 310145Z 3102/3124 05004KT P6SM SKC
     FM311200 VRB04KT P6SM BKN045 BKN200=



000
FTUS42 KRAH 310145 AAA
TAFRDU
TAF AMD
KRDU 310145Z 3102/3124 VRB02KT P6SM SKC
     FM311500 04004KT P6SM FEW050 BKN250=



000
FTUS42 KRAH 310145 AAA
TAFRDU
TAF AMD
KRDU 310145Z 3102/3124 VRB02KT P6SM SKC
     FM311500 04004KT P6SM FEW050 BKN250=



000
FTUS42 KRAH 310005 AAA
TAFRWI
TAF AMD
KRWI 310005Z 3100/3124 02003KT P6SM FEW050
      TEMPO 3109/3113 3SM BR
     FM311400 02005KT P6SM FEW050 SCT250=



000
FTUS42 KRAH 302323
TAFRWI
TAF
KRWI 302323Z 3100/3124 02003KT P6SM FEW050
     FM311400 02005KT P6SM FEW050 SCT250=



000
FTUS42 KRAH 302323
TAFGSO
TAF
KGSO 302323Z 3100/3124 05004KT P6SM SKC
     FM311200 VRB04KT P6SM BKN045 BKN200=



000
FTUS42 KRAH 302323
TAFFAY
TAF
KFAY 302323Z 3100/3124 03005KT P6SM FEW060
     FM311400 04006KT P6SM FEW050 BKN250=



000
FTUS42 KRAH 302323
TAFINT
TAF
KINT 302323Z 3100/3124 05004KT P6SM SKC
     FM311200 VRB04KT P6SM BKN045 BKN200=



000
FTUS42 KRAH 302323
TAFRDU
TAF
KRDU 302323Z 3100/3124 VRB03KT P6SM FEW060
     FM311500 04004KT P6SM FEW050 BKN250=



000
FTUS42 KRAH 301720
TAFGSO
TAF
KGSO 301720Z 3018/3118 01005KT P6SM SKC
     FM310900 02003KT P6SM SCT035 BKN200
     FM311600 03003KT P6SM BKN035=



000
FTUS42 KRAH 301720
TAFFAY
TAF
KFAY 301720Z 3018/3118 03010KT P6SM SKC
     FM310000 02003KT P6SM SKC
     FM311200 04006KT P6SM SCT250=



000
FTUS42 KRAH 301720
TAFRDU
TAF
KRDU 301720Z 3018/3118 01005KT P6SM SCT050
     FM310000 02003KT P6SM SKC
     FM311500 04006KT P6SM BKN250=



000
FTUS42 KRAH 301720
TAFRWI
TAF
KRWI 301720Z 3018/3118 03010KT P6SM SCT050
     FM310000 02003KT P6SM SKC
     FM311200 04006KT P6SM SCT250=



000
FTUS42 KRAH 301720
TAFINT
TAF
KINT 301720Z 3018/3118 01005KT P6SM SKC
     FM310900 02003KT P6SM SCT035 BKN200
     FM311600 03003KT P6SM BKN035=



000
FTUS42 KRAH 301251 AAA
TAFRWI
TAF AMD
KRWI 301251Z 3013/3112 02005KT P6SM SCT040=



000
FTUS42 KRAH 301140
TAFINT
TAF
KINT 301140Z 3012/3112 36005KT P6SM SKC=



000
FTUS42 KRAH 301140
TAFRDU
TAF
KRDU 301140Z 3012/3112 01007KT P6SM SCT060=



000
FTUS42 KRAH 301140
TAFGSO
TAF
KGSO 301140Z 3012/3112 36005KT P6SM FEW060=



000
FTUS42 KRAH 301140
TAFFAY
TAF
KFAY 301140Z 3012/3112 02008KT P6SM BKN060
      TEMPO 3012/3014 SCT015=



000
FTUS42 KRAH 301140
TAFRWI
TAF
KRWI 301140Z 3012/3112 36005KT P6SM BKN006 BKN060
      TEMPO 3012/3013 00000KT 1/2SM FG OVC003
     FM301300 02007KT P6SM BKN040 BKN080=



000
FTUS42 KRAH 301129 AAB
TAFRWI
TAF AMD
KRWI 301129Z 3011/3106 36005KT P6SM BKN006 BKN060
      TEMPO 3011/3013 00000KT 1/2SM FG OVC003
     FM301300 02007KT P6SM BKN040 BKN080=



000
FTUS42 KRAH 301105 AAA
TAFFAY
TAF AMD
KFAY 301105Z 3011/3106 01009KT P6SM BKN060
      TEMPO 3011/3013 BKN012
     FM301400 02009KT P6SM SCT040=



000
FTUS42 KRAH 300908 AAA
TAFGSO
TAF AMD
KGSO 300908Z 3009/3106 36005KT P6SM SCT070=



000
FTUS42 KRAH 300908 AAA
TAFINT
TAF AMD
KINT 300908Z 3009/3106 36005KT P6SM FEW070=



000
FTUS42 KRAH 300908 AAA
TAFRDU
TAF AMD
KRDU 300908Z 3009/3106 01006KT P6SM SCT050 BKN080
      TEMPO 3009/3013 SCT012 BKN035
     FM301300 01007KT P6SM SKC=



000
FTUS42 KRAH 300703 AAA
TAFRWI
TAF AMD
KRWI 300703Z 3007/3106 36007KT P6SM BKN006 OVC015
      TEMPO 3007/3010 SCT012 BKN040 OVC080
     FM301000 02007KT P6SM BKN040 BKN080=



000
FTUS42 KRAH 300540
TAFINT
TAF
KINT 300540Z 3006/3106 36005KT P6SM BKN060 BKN090
     FM301000 36007KT P6SM SKC=



000
FTUS42 KRAH 300540
TAFRDU
TAF
KRDU 300540Z 3006/3106 01006KT P6SM BKN050 BKN080
     FM301200 01007KT P6SM SKC=



000
FTUS42 KRAH 300540
TAFRWI
TAF
KRWI 300540Z 3006/3106 36007KT P6SM SCT030 BKN040 BKN080
      TEMPO 3006/3010 BKN015
     FM301400 02007KT P6SM SCT040=



000
FTUS42 KRAH 300540
TAFFAY
TAF
KFAY 300540Z 3006/3106 01008KT P6SM BKN040 OVC080
     FM301400 02008KT P6SM SCT040=



000
FTUS42 KRAH 300540
TAFGSO
TAF
KGSO 300540Z 3006/3106 36005KT P6SM BKN060 BKN090
     FM301000 36007KT P6SM SKC=



000
FTUS42 KRAH 300147 AAB
TAFGSO
TAF AMD
KGSO 300147Z 3002/3024 36008KT P6SM SCT040 BKN080
      TEMPO 3002/3003 2SM -SHRA BR OVC040
     FM301200 01007KT P6SM SKC=



000
FTUS42 KRAH 300043 AAA
TAFGSO
TAF AMD
KGSO 300043Z 3001/3024 36008KT P6SM SCT040 BKN080
      TEMPO 3001/3003 5SM -SHRA BR OVC040
     FM301200 01007KT P6SM SKC=



000
FTUS42 KRAH 300042 AAA
TAFINT
TAF AMD
KINT 300042Z 3001/3024 36008KT P6SM BKN040 OVC080
      TEMPO 3001/3003 6SM -RA BR OVC040
     FM301200 01007KT P6SM SKC=



000
FTUS42 KRAH 292330
TAFRDU
TAF
KRDU 292330Z 3000/3024 04008KT P6SM SCT050 BKN080
     FM301200 01007KT P6SM SCT250=



000
FTUS42 KRAH 292330
TAFRWI
TAF
KRWI 292330Z 3000/3024 33007KT P6SM SCT040 BKN080
      TEMPO 3000/3001 3SM -SHRA BKN040=



000
FTUS42 KRAH 292330
TAFGSO
TAF
KGSO 292330Z 3000/3024 36008KT P6SM SCT050 BKN080
     FM301200 01007KT P6SM SKC=



000
FTUS42 KRAH 292330
TAFFAY
TAF
KFAY 292330Z 3000/3024 01008KT P6SM SCT050 BKN080
     FM301200 01010KT P6SM BKN250=



000
FTUS42 KRAH 292330
TAFINT
TAF
KINT 292330Z 3000/3024 36008KT P6SM BKN100
     FM301200 01007KT P6SM SKC=



000
FTUS42 KRAH 292205 AAA
TAFRWI
TAF AMD
KRWI 292205Z 2922/3018 18006KT P6SM SCT040 BKN130
      TEMPO 2923/3001 5SM -SHRA BKN040
     FM300300 34006KT P6SM BKN250=



000
FTUS42 KRAH 292202 AAA
TAFFAY
TAF AMD
KFAY 292202Z 2922/3018 20006KT P6SM SCT040 BKN130
      TEMPO 2923/3002 6SM -SHRA BKN040
     FM300200 34006KT P6SM BKN250=



000
FTUS42 KRAH 292200 AAA
TAFINT
TAF AMD
KINT 292200Z 2922/3018 33007KT P6SM SCT050 OVC080
     FM300600 35003KT P6SM SCT250
     FM301200 36006KT P6SM SKC=



000
FTUS42 KRAH 292159 AAA
TAFGSO
TAF AMD
KGSO 292159Z 2922/3018 36007KT P6SM SCT050 BKN080
     FM300600 36006KT P6SM SKC=



000
FTUS42 KRAH 292045 AAA
TAFRDU
TAF AMD
KRDU 292045Z 2921/3018 24008KT P6SM SCT040 BKN250
      TEMPO 2921/2923 31012G25KT 4SM -SHRA BR BKN040
     FM292300 33008KT P6SM SCT040 BKN080
     FM301200 01006KT P6SM SKC=



000
FTUS42 KRAH 291740
TAFGSO
TAF
KGSO 291740Z 2918/3018 27008KT P6SM SCT050 OVC090
     FM292100 34007KT P6SM OVC050
      TEMPO 2921/3001 5SM -SHRA OVC030
     FM300600 34003KT P6SM BKN250
     FM301200 36006KT P6SM SKC=



000
FTUS42 KRAH 291740
TAFINT
TAF
KINT 291740Z 2918/3018 27007KT P6SM SCT050 OVC090
     FM292000 34007KT P6SM VCSH OVC050
      TEMPO 2920/2923 29012G22KT 5SM -SHRA OVC030
     FM300600 35003KT P6SM BKN250
     FM301200 36006KT P6SM SKC=



000
FTUS42 KRAH 291740
TAFRDU
TAF
KRDU 291740Z 2918/3018 24012G18KT P6SM SCT090 BKN250
     FM292300 34007KT P6SM VCSH OVC050
      TEMPO 2923/3003 5SM -SHRA OVC030
     FM300900 34003KT P6SM BKN250
     FM301200 01006KT P6SM SKC=



000
FTUS42 KRAH 291740
TAFRWI
TAF
KRWI 291740Z 2918/3018 24012G18KT P6SM SCT090 BKN250
     FM300000 34007KT P6SM OVC050
      TEMPO 3002/3006 5SM -SHRA OVC030
     FM301200 34003KT P6SM BKN250
     FM301500 01006KT P6SM SKC=



000
FTUS42 KRAH 291740
TAFFAY
TAF
KFAY 291740Z 2918/3018 24012G18KT P6SM SCT090 BKN250
     FM300000 34007KT P6SM OVC050
      TEMPO 3001/3005 5SM -SHRA OVC030
     FM301200 34003KT P6SM BKN250
     FM301500 01006KT P6SM SKC=



000
FTUS42 KRAH 291120
TAFINT
TAF
KINT 291120Z 2912/3012 23009KT P6SM BKN250
     FM292000 31007KT P6SM BKN040 BKN080
      TEMPO 2920/2923 29012G22KT 5SM -SHRA BKN012 OVC030=



000
FTUS42 KRAH 291120
TAFRWI
TAF
KRWI 291120Z 2912/3012 22011KT P6SM BKN250
      TEMPO 2916/2920 23012G18KT
     FM292300 30009KT P6SM BKN045 BKN100
      TEMPO 2923/3003 29012G22KT 4SM -SHRA BKN012 OVC030=



000
FTUS42 KRAH 291120
TAFFAY
TAF
KFAY 291120Z 2912/3012 22011KT P6SM BKN250
      TEMPO 2916/2920 23012G18KT
     FM300000 30008KT P6SM BKN045 BKN100
      TEMPO 3000/3004 29012G22KT 4SM -SHRA SCT007 BKN012 OVC030=



000
FTUS42 KRAH 291120
TAFGSO
TAF
KGSO 291120Z 2912/3012 23009KT P6SM BKN250
     FM292000 31007KT P6SM BKN040 BKN080
      TEMPO 2920/2923 29012G22KT 5SM -SHRA BKN012 OVC030=



000
FTUS42 KRAH 291120
TAFRDU
TAF
KRDU 291120Z 2912/3012 21009KT P6SM BKN250
     FM292230 30008KT P6SM BKN045 BKN090
      TEMPO 2923/3002 29012G22KT 4SM -SHRA BKN012 OVC030=



000
FTUS42 KRAH 291035 AAA
TAFFAY
TAF AMD
KFAY 291035Z 2911/3006 21010KT P6SM BKN250
     FM300000 29009KT P6SM BKN045 BKN100
      TEMPO 3000/3003 28012G22KT 4SM -SHRA SCT007 BKN012 OVC030=



000
FTUS42 KRAH 291035 AAA
TAFFAY
TAF AMD
KFAY 291035Z 2911/3006 21010KT P6SM BKN250
     FM300000 29009KT P6SM BKN045 BKN100
      TEMPO 3000/3003 28012G22KT 4SM -SHRA SCT007 BKN012 OVC030=



000
FTUS42 KRAH 290915 AAA
TAFINT
TAF AMD
KINT 290915Z 2909/3006 22008KT P6SM BKN250
     FM292000 29007KT P6SM BKN040 BKN080
      TEMPO 2920/2923 28012G22KT 5SM -SHRA BKN012 OVC030=



000
FTUS42 KRAH 290915 AAA
TAFGSO
TAF AMD
KGSO 290915Z 2909/3006 22008KT P6SM BKN250
     FM292100 29007KT P6SM BKN040 BKN080
      TEMPO 2921/2924 28012G22KT 5SM -SHRA BKN012 OVC030=



000
FTUS42 KRAH 290915 AAA
TAFRDU
TAF AMD
KRDU 290915Z 2909/3006 21009KT P6SM BKN250
     FM292200 29009KT P6SM BKN045 BKN090
      TEMPO 2922/3001 28012G22KT 4SM -SHRA BKN012 OVC030=



000
FTUS42 KRAH 290540
TAFINT
TAF
KINT 290540Z 2906/3006 22008KT P6SM BKN250
     FM292000 29007KT P6SM BKN040 BKN080
      TEMPO 2920/2923 28012G22KT 5SM -SHRA BKN012 OVC030=



000
FTUS42 KRAH 290540
TAFGSO
TAF
KGSO 290540Z 2906/3006 22008KT P6SM BKN250
     FM292100 29007KT P6SM BKN040 BKN080
      TEMPO 2921/2924 28012G22KT 5SM -SHRA BKN012 OVC030=



000
FTUS42 KRAH 290540
TAFRWI
TAF
KRWI 290540Z 2906/3006 21009KT P6SM BKN250
     FM292300 29009KT P6SM BKN045 BKN100
      TEMPO 2923/3002 28012G22KT 4SM -SHRA BKN012 OVC030=



000
FTUS42 KRAH 290540
TAFRDU
TAF
KRDU 290540Z 2906/3006 21009KT P6SM BKN250
     FM292200 29009KT P6SM BKN045 BKN090
      TEMPO 2922/3001 28012G22KT 4SM -SHRA BKN012 OVC030=



000
FTUS42 KRAH 290540
TAFFAY
TAF
KFAY 290540Z 2906/3006 21008KT P6SM BKN250
      TEMPO 2910/2914 BKN005
     FM300000 29009KT P6SM BKN045 BKN100
      TEMPO 3000/3003 28012G22KT 4SM -SHRA SCT007 BKN012 OVC030=



000
FTUS42 KRAH 290151 AAA
TAFGSO
TAF AMD
KGSO 290151Z 2902/2924 22005KT P6SM BKN250
     FM291500 26007KT P6SM OVC100
     FM291800 29008KT P6SM OVC080
      TEMPO 2920/2923 6SM -SHRA BKN040=



000
FTUS42 KRAH 290151 AAA
TAFRDU
TAF AMD
KRDU 290151Z 2902/2924 20007KT P6SM BKN250
     FM291500 24011KT P6SM BKN100
     FM292200 27006KT P6SM BKN070=



000
FTUS42 KRAH 290151 AAA
TAFGSO
TAF AMD
KGSO 290151Z 2902/2924 22005KT P6SM BKN250
     FM291500 26007KT P6SM OVC100
     FM291800 29008KT P6SM OVC080
      TEMPO 2920/2923 6SM -SHRA BKN040=



000
FTUS42 KRAH 290151 AAA
TAFRDU
TAF AMD
KRDU 290151Z 2902/2924 20007KT P6SM BKN250
     FM291500 24011KT P6SM BKN100
     FM292200 27006KT P6SM BKN070=



000
FTUS42 KRAH 282320
TAFRWI
TAF
KRWI 282320Z 2900/2924 20004KT P6SM SCT250
     FM290600 19003KT 5SM BR BKN250
     FM291300 22011KT P6SM BKN100
     FM292100 25010KT P6SM BKN080=



000
FTUS42 KRAH 282320
TAFINT
TAF
KINT 282320Z 2900/2924 22006KT P6SM BKN250
     FM291500 25007KT P6SM OVC100
     FM291800 29007KT P6SM OVC080
      TEMPO 2919/2922 6SM -SHRA BKN040=



000
FTUS42 KRAH 282320
TAFFAY
TAF
KFAY 282320Z 2900/2924 20006KT P6SM SCT250
     FM290600 20004KT 5SM BR BKN250
     FM291300 23010KT P6SM BKN250
     FM292100 24007KT P6SM BKN120=



000
FTUS42 KRAH 282320
TAFRDU
TAF
KRDU 282320Z 2900/2924 21007KT P6SM BKN250
     FM291500 24011KT P6SM BKN100
     FM292200 27006KT P6SM BKN070=



000
FTUS42 KRAH 282320
TAFGSO
TAF
KGSO 282320Z 2900/2924 23006KT P6SM BKN250
     FM291500 26007KT P6SM OVC100
     FM291800 29008KT P6SM OVC080
      TEMPO 2920/2923 6SM -SHRA BKN040=



000
FTUS42 KRAH 281721
TAFRDU
TAF
KRDU 281721Z 2818/2918 21012G18KT P6SM FEW250
     FM290000 21005KT P6SM SCT250
     FM291500 24012G18KT P6SM BKN250=



000
FTUS42 KRAH 281721
TAFRWI
TAF
KRWI 281721Z 2818/2918 21012G18KT P6SM FEW250
     FM290000 21006KT P6SM SCT250
     FM290700 21005KT 6SM BR BKN004
     FM291500 24012G18KT P6SM BKN250=



000
FTUS42 KRAH 281721
TAFINT
TAF
KINT 281721Z 2818/2918 21012G18KT P6SM SCT250
     FM290000 21006KT P6SM BKN250
     FM291500 24008KT P6SM BKN100 PROB30 2917/2918 5SM SHRA BKN035=



000
FTUS42 KRAH 281721
TAFGSO
TAF
KGSO 281721Z 2818/2918 21012G18KT P6SM SCT250
     FM290000 21006KT P6SM BKN250
     FM291500 24008KT P6SM BKN100 PROB30 2917/2918 5SM SHRA BKN035=



000
FTUS42 KRAH 281721
TAFFAY
TAF
KFAY 281721Z 2818/2918 21012G18KT P6SM FEW250
     FM290000 21006KT P6SM SCT250
      TEMPO 2909/2912 4SM BR BKN004
     FM291500 24012G18KT P6SM BKN250=



000
FTUS42 KRAH 281429 AAC
TAFFAY
TAF AMD
KFAY 281429Z 2814/2912 21006KT P6SM FEW250
     FM290700 21005KT 6SM BR BKN004=



000
FTUS42 KRAH 281401 AAB
TAFFAY
TAF AMD
KFAY 281401Z 2814/2912 20003KT 1/2SM FG OVC002
     FM281530 21005KT 4SM BR BKN007
     FM281700 21009KT P6SM FEW250
     FM290700 21005KT 6SM BR BKN004=



000
FTUS42 KRAH 281342 AAA
TAFFAY
TAF AMD
KFAY 281342Z 2814/2912 20003KT 1/4SM FG OVC002
     FM281530 21005KT 4SM BR BKN005
     FM281700 21009KT P6SM FEW250
     FM290700 21005KT 6SM BR BKN004=



000
FTUS42 KRAH 281340 AAA
TAFRWI
TAF AMD
KRWI 281340Z 2814/2912 21005KT P6SM SCT250
     FM290800 21005KT 6SM BR BKN004=



000
FTUS42 KRAH 281337 AAB
TAFRDU
TAF AMD
KRDU 281337Z 2814/2912 21005KT P6SM FEW250
     FM282000 23009G17KT P6SM FEW250=



000
FTUS42 KRAH 281129 AAA
TAFRDU
TAF AMD
KRDU 281129Z 2811/2912 20003KT P6SM FEW003
      TEMPO 2812/2815 1/2SM FG OVC002
     FM281500 21005KT 6SM BR BKN006
     FM281630 21009KT P6SM FEW250=



000
FTUS42 KRAH 281120
TAFGSO
TAF
KGSO 281120Z 2812/2912 21009KT P6SM SCT250
      TEMPO 2816/2820 21012G18KT P6SM=



000
FTUS42 KRAH 281120
TAFFAY
TAF
KFAY 281120Z 2812/2912 20003KT 1/4SM FG OVC002
      TEMPO 2812/2815 1SM BR OVC004
     FM281500 21005KT 6SM BR BKN005
     FM281630 21009KT P6SM FEW250
     FM290700 21005KT 6SM BR BKN004=



000
FTUS42 KRAH 281120
TAFINT
TAF
KINT 281120Z 2812/2912 21009KT P6SM SCT250
      TEMPO 2816/2820 21012G18KT P6SM=



000
FTUS42 KRAH 281120
TAFRWI
TAF
KRWI 281120Z 2812/2912 00000KT P6SM FEW250
      TEMPO 2813/2816 3/4SM BR OVC002
     FM281600 20009KT P6SM SCT250
     FM290800 21005KT 6SM BR BKN004=



000
FTUS42 KRAH 281120
TAFRDU
TAF
KRDU 281120Z 2812/2912 20003KT P6SM OVC003
      TEMPO 2812/2815 1/2SM FG OVC002
     FM281500 21005KT 6SM BR BKN006
     FM281630 21009KT P6SM FEW250=



000
FTUS42 KRAH 281113 AAC
TAFRDU
TAF AMD
KRDU 281113Z 2811/2906 20003KT P6SM FEW250
      TEMPO 2811/2815 2SM BR OVC002
     FM281530 22011KT P6SM SCT250=



000
FTUS42 KRAH 281112 AAA
TAFRWI
TAF AMD
KRWI 281112Z 2811/2906 00000KT P6SM FEW250
      TEMPO 2813/2816 1SM BR BKN003
     FM281600 20008KT P6SM SCT250=



000
FTUS42 KRAH 281106 AAB
TAFFAY
TAF AMD
KFAY 281106Z 2811/2906 20003KT 1SM BR OVC002
      TEMPO 2811/2815 1/4SM FG
     FM281500 21005KT 6SM BR BKN005
     FM281630 21008KT P6SM FEW250=



000
FTUS42 KRAH 281013 AAB
TAFRDU
TAF AMD
KRDU 281013Z 2810/2906 20003KT P6SM FEW250
      TEMPO 2810/2814 3SM BR OVC005
     FM281530 22011KT P6SM SCT250=



000
FTUS42 KRAH 281007 AAA
TAFFAY
TAF AMD
KFAY 281007Z 2810/2906 00000KT P6SM SKC
     FM281030 22003KT 3SM BR BKN002
      TEMPO 2811/2814 1SM BR
     FM281500 21008KT P6SM SCT250=



000
FTUS42 KRAH 280913 AAA
TAFINT
TAF AMD
KINT 280913Z 2809/2906 21004KT P6SM SCT250
     FM281600 21009G17KT P6SM SCT250=



000
FTUS42 KRAH 280913 AAA
TAFRDU
TAF AMD
KRDU 280913Z 2809/2906 20003KT P6SM FEW250
      TEMPO 2811/2815 3SM BR OVC003
     FM281530 22011KT P6SM SCT250=



000
FTUS42 KRAH 280913 AAA
TAFGSO
TAF AMD
KGSO 280913Z 2809/2906 21004KT P6SM SCT250
     FM281600 21009G17KT P6SM SCT250=



    US Dept of Commerce
    National Oceanic and Atmospheric Administration
    National Weather Service
    1325 East West Highway
    Silver Spring, MD 20910
    Page Author: NWS Internet Services Team
Disclaimer
Information Quality
Credits
Glossary
Privacy Policy
Freedom of Information Act (FOIA)
About Us
Career Opportunities